Oryu Maru — JL5702 — position and weather

sailwx.info

Track history (hours):
 
Tides and Currents Weather Stations Pressure Air Temp Water Temp Dewpoint Dewpoint Depression Visibility Wind Speed Wind Dir Waves Ship Positions

Oryu Maru

Last reported at 2018-Jul-17 22:17 UTC. Time now 2018-Jul-19 19:25 UTC.
Position N 33°44' E 135°02'.

Length 115 m; draft 5 m.

Type: Cargo ship. MMSI: 431500955.

Date/timePositionNaut miles runAvg speedWind from/ knotsBaromVisibWave heightAir tempDewpointWater temp
2018-Jul-17 22:17N 33°44' E 135°02'413.9
2018-Jul-17 21:58N 33°48' E 134°59'614.2
2018-Jul-17 21:30N 33°54' E 134°57'1014.9
2018-Jul-17 20:49N 34°02' E 134°49'515.3
2018-Jul-17 20:30N 34°06' E 134°46'815.8
2018-Jul-17 20:00N 34°12' E 134°40'815.1
2018-Jul-17 19:29N 34°18' E 134°33'714.9
2018-Jul-17 19:00N 34°20' E 134°25'11 0.5
2018-Jul-16 19:37N 34°25' E 134°13'213.9
2018-Jul-16 19:30N 34°24' E 134°15'715.3
2018-Jul-16 19:00N 34°21' E 134°23'815.7
2018-Jul-16 18:30N 34°18' E 134°32'714.5
2018-Jul-16 18:00N 34°14' E 134°39'815.0
2018-Jul-16 17:30N 34°08' E 134°45'816.0
2018-Jul-16 17:00N 34°02' E 134°50'816.2
2018-Jul-16 16:31N 33°55' E 134°56'816.0
2018-Jul-16 16:00N 33°49' E 135°02'4 0.1
2018-Jul-14 22:20N 33°45' E 135°03'714.8
2018-Jul-14 21:54N 33°51' E 134°58'1014.7
2018-Jul-14 21:15N 33°59' E 134°52'414.7
2018-Jul-14 20:59N 34°02' E 134°49'714.8
2018-Jul-14 20:30N 34°07' E 134°44'815.0
2018-Jul-14 20:00N 34°14' E 134°39'714.1
2018-Jul-14 19:31N 34°18' E 134°33'815.3
2018-Jul-14 19:00N 34°21' E 134°24'815.5
2018-Jul-14 18:30N 34°23' E 134°15'6 0.3
2018-Jul-13 21:13N 34°27' E 134°09'416.1
2018-Jul-13 20:58N 34°25' E 134°13'715.9
2018-Jul-13 20:30N 34°23' E 134°21'815.8
2018-Jul-13 20:01N 34°20' E 134°30'915.8
2018-Jul-13 19:25N 34°14' E 134°39'715.3
2018-Jul-13 18:56N 34°08' E 134°44'615.2
2018-Jul-13 18:30N 34°03' E 134°49'815.6
2018-Jul-13 18:00N 33°57' E 134°56'815.6
2018-Jul-13 17:30N 33°51' E 135°01'6 0.2
2018-Jul-12 03:32N 33°48' E 135°08'115.3
2018-Jul-12 03:27N 33°49' E 135°07'715.6
2018-Jul-12 03:00N 33°54' E 135°01'815.0
2018-Jul-12 02:30N 33°59' E 134°55'815.1
2018-Jul-12 02:00N 34°05' E 134°49'915.6
2018-Jul-12 01:25N 34°12' E 134°41'814.3
2018-Jul-12 00:51N 34°17' E 134°34'615.3
2018-Jul-12 00:28N 34°19' E 134°28'9 0.4
2018-Jul-10 23:45N 34°23' E 134°18'615.9
2018-Jul-10 23:23N 34°22' E 134°25'615.5
2018-Jul-10 23:00N 34°19' E 134°31'1815.4
2018-Jul-10 21:51N 34°07' E 134°47'716.2
2018-Jul-10 21:25N 34°01' E 134°52'716.3
2018-Jul-10 20:59N 33°56' E 134°58'8 0.3
2018-Jul-09 14:08N 33°50' E 135°03'215.1
2018-Jul-09 14:01N 33°51' E 135°02'2614.6
2018-Jul-09 12:13N 34°11' E 134°41'814.7
2018-Jul-09 11:39N 34°17' E 134°34'314.9
2018-Jul-09 11:26N 34°19' E 134°30'  
Track history (hours):
 
Tides and Currents Weather Stations Pressure Air Temp Water Temp Dewpoint Dewpoint Depression Visibility Wind Speed Wind Dir Waves Ship Positions

Oryu Maru

Last reported at 2018-Jul-17 22:17 UTC. Time now 2018-Jul-19 19:25 UTC.
Position N 33°44' E 135°02'.

Length 115 m; draft 5 m.

Type: Cargo ship. MMSI: 431500955.

Date/timePositionNaut miles runAvg speedWind from/ knotsBaromVisibWave heightAir tempDewpointWater temp
2018-Jul-17 22:17N 33°44' E 135°02'413.9
2018-Jul-17 21:58N 33°48' E 134°59'614.2
2018-Jul-17 21:30N 33°54' E 134°57'1014.9
2018-Jul-17 20:49N 34°02' E 134°49'515.3
2018-Jul-17 20:30N 34°06' E 134°46'815.8
2018-Jul-17 20:00N 34°12' E 134°40'815.1
2018-Jul-17 19:29N 34°18' E 134°33'714.9
2018-Jul-17 19:00N 34°20' E 134°25'11 0.5
2018-Jul-16 19:37N 34°25' E 134°13'213.9
2018-Jul-16 19:30N 34°24' E 134°15'715.3
2018-Jul-16 19:00N 34°21' E 134°23'815.7
2018-Jul-16 18:30N 34°18' E 134°32'714.5
2018-Jul-16 18:00N 34°14' E 134°39'815.0
2018-Jul-16 17:30N 34°08' E 134°45'816.0
2018-Jul-16 17:00N 34°02' E 134°50'816.2
2018-Jul-16 16:31N 33°55' E 134°56'816.0
2018-Jul-16 16:00N 33°49' E 135°02'4 0.1
2018-Jul-14 22:20N 33°45' E 135°03'714.8
2018-Jul-14 21:54N 33°51' E 134°58'1014.7
2018-Jul-14 21:15N 33°59' E 134°52'414.7
2018-Jul-14 20:59N 34°02' E 134°49'714.8
2018-Jul-14 20:30N 34°07' E 134°44'815.0
2018-Jul-14 20:00N 34°14' E 134°39'714.1
2018-Jul-14 19:31N 34°18' E 134°33'815.3
2018-Jul-14 19:00N 34°21' E 134°24'815.5
2018-Jul-14 18:30N 34°23' E 134°15'6 0.3
2018-Jul-13 21:13N 34°27' E 134°09'416.1
2018-Jul-13 20:58N 34°25' E 134°13'715.9
2018-Jul-13 20:30N 34°23' E 134°21'815.8
2018-Jul-13 20:01N 34°20' E 134°30'915.8
2018-Jul-13 19:25N 34°14' E 134°39'715.3
2018-Jul-13 18:56N 34°08' E 134°44'615.2
2018-Jul-13 18:30N 34°03' E 134°49'815.6
2018-Jul-13 18:00N 33°57' E 134°56'815.6
2018-Jul-13 17:30N 33°51' E 135°01'6 0.2
2018-Jul-12 03:32N 33°48' E 135°08'115.3
2018-Jul-12 03:27N 33°49' E 135°07'715.6
2018-Jul-12 03:00N 33°54' E 135°01'815.0
2018-Jul-12 02:30N 33°59' E 134°55'815.1
2018-Jul-12 02:00N 34°05' E 134°49'915.6
2018-Jul-12 01:25N 34°12' E 134°41'814.3
2018-Jul-12 00:51N 34°17' E 134°34'615.3
2018-Jul-12 00:28N 34°19' E 134°28'9 0.4
2018-Jul-10 23:45N 34°23' E 134°18'615.9
2018-Jul-10 23:23N 34°22' E 134°25'615.5
2018-Jul-10 23:00N 34°19' E 134°31'1815.4
2018-Jul-10 21:51N 34°07' E 134°47'716.2
2018-Jul-10 21:25N 34°01' E 134°52'716.3
2018-Jul-10 20:59N 33°56' E 134°58'8 0.3
2018-Jul-09 14:08N 33°50' E 135°03'215.1
2018-Jul-09 14:01N 33°51' E 135°02'2614.6
2018-Jul-09 12:13N 34°11' E 134°41'814.7
2018-Jul-09 11:39N 34°17' E 134°34'314.9
2018-Jul-09 11:26N 34°19' E 134°30'  

Dump ship's entire track history